createdAt,value
2019-05-18T00:02:17.543Z,100569.22
2019-05-18T00:04:49.652Z,100568.17
2019-05-18T00:07:21.942Z,100569.88
2019-05-18T00:09:55.358Z,100574.69
2019-05-18T00:12:27.658Z,100580.73
2019-05-18T00:15:02.381Z,100576.77
2019-05-18T00:17:34.725Z,100577.23
2019-05-18T00:20:07.094Z,100575.11
2019-05-18T00:22:39.314Z,100567.31
2019-05-18T00:25:11.665Z,100560.80
2019-05-18T00:27:43.967Z,100567.39
2019-05-18T00:30:16.205Z,100571.34
2019-05-18T00:32:48.445Z,100567.02
2019-05-18T00:35:20.700Z,100562.70
2019-05-18T00:37:54.302Z,100558.77
2019-05-18T00:40:26.544Z,100551.73
2019-05-18T00:42:58.827Z,100556.91
2019-05-18T00:45:31.139Z,100560.73
2019-05-18T00:48:03.391Z,100552.32
2019-05-18T00:50:35.653Z,100552.05
2019-05-18T00:53:07.850Z,100559.20
2019-05-18T00:55:40.117Z,100558.13
2019-05-18T00:58:12.358Z,100558.05
2019-05-18T01:00:44.578Z,100560.58
2019-05-18T01:03:16.830Z,100556.08
2019-05-18T01:05:49.110Z,100553.80
2019-05-18T01:08:21.510Z,100548.44
2019-05-18T01:10:53.856Z,100556.61
2019-05-18T01:13:26.158Z,100554.42
2019-05-18T01:15:58.395Z,100554.92
2019-05-18T01:18:30.685Z,100552.35
2019-05-18T01:21:02.959Z,100552.82
2019-05-18T01:23:35.238Z,100546.75
2019-05-18T01:26:07.501Z,100546.28
2019-05-18T01:28:40.786Z,100543.20
2019-05-18T01:31:14.115Z,100543.58
2019-05-18T01:33:48.366Z,100531.73
2019-05-18T01:36:20.633Z,100541.72
2019-05-18T01:38:52.852Z,100533.00
2019-05-18T01:41:25.097Z,100536.54
2019-05-18T01:43:57.361Z,100532.58
2019-05-18T01:46:29.614Z,100529.95
2019-05-18T01:49:02.219Z,100529.95
2019-05-18T01:51:34.544Z,100528.23
2019-05-18T01:54:07.005Z,100526.92
2019-05-18T01:56:39.296Z,100526.50
2019-05-18T01:59:12.565Z,100528.27
2019-05-18T02:01:45.906Z,100530.05
2019-05-18T02:04:18.145Z,100530.09
2019-05-18T02:06:50.460Z,100530.59
2019-05-18T02:09:22.749Z,100524.02
2019-05-18T02:11:56.981Z,100526.20
2019-05-18T02:14:29.324Z,100528.83
2019-05-18T02:17:01.546Z,100526.71
2019-05-18T02:19:33.812Z,100527.60
2019-05-18T02:22:06.133Z,100526.29
2019-05-18T02:24:38.391Z,100526.72
2019-05-18T02:27:10.675Z,100521.48
2019-05-18T02:29:42.941Z,100522.28
2019-05-18T02:32:15.151Z,100525.36
2019-05-18T02:34:47.546Z,100525.41
2019-05-18T02:37:19.793Z,100521.98
2019-05-18T02:39:52.080Z,100524.98
2019-05-18T02:42:24.327Z,100527.13
2019-05-18T02:44:56.585Z,100529.28
2019-05-18T02:47:28.822Z,100528.02
2019-05-18T02:50:01.066Z,100531.94
2019-05-18T02:52:33.374Z,100527.98
2019-05-18T02:55:05.689Z,100528.83
2019-05-18T02:57:38.162Z,100525.36
2019-05-18T03:00:10.405Z,100525.83
2019-05-18T03:02:42.833Z,100522.41
2019-05-18T03:05:15.102Z,100526.80
2019-05-18T03:07:47.369Z,100532.95
2019-05-18T03:10:19.647Z,100528.19
2019-05-18T03:12:51.916Z,100524.22
2019-05-18T03:15:24.295Z,100522.91
2019-05-18T03:17:56.707Z,100512.03
2019-05-18T03:20:28.959Z,100515.91
2019-05-18T03:23:01.362Z,100510.17
2019-05-18T03:25:33.588Z,100510.09
2019-05-18T03:28:05.823Z,100512.75
2019-05-18T03:30:38.098Z,100512.75
2019-05-18T03:33:12.350Z,100513.59
2019-05-18T03:35:44.600Z,100511.83
2019-05-18T03:38:16.826Z,100516.21
2019-05-18T03:40:49.058Z,100514.09
2019-05-18T03:43:21.331Z,100511.06
2019-05-18T03:45:53.560Z,100513.72
2019-05-18T03:48:25.834Z,100514.69
2019-05-18T03:50:58.059Z,100509.88
2019-05-18T03:53:30.291Z,100512.03
2019-05-18T03:56:02.577Z,100511.19
2019-05-18T03:58:34.816Z,100512.92
2019-05-18T04:01:06.994Z,100512.92
2019-05-18T04:03:39.267Z,100509.88
2019-05-18T04:06:11.588Z,100510.27
2019-05-18T04:08:43.900Z,100512.49
2019-05-18T04:11:16.169Z,100516.45
2019-05-18T04:13:48.504Z,100515.65
2019-05-18T04:16:20.750Z,100517.42
2019-05-18T04:18:53.025Z,100523.16
2019-05-18T04:21:25.434Z,100522.31
2019-05-18T04:23:57.680Z,100521.04
2019-05-18T04:26:30.000Z,100522.34
2019-05-18T04:29:02.288Z,100514.92
2019-05-18T04:31:34.567Z,100512.77
2019-05-18T04:34:06.786Z,100512.30
2019-05-18T04:36:39.094Z,100515.80
2019-05-18T04:39:13.394Z,100509.27
2019-05-18T04:41:45.646Z,100514.50
2019-05-18T04:44:18.013Z,100515.42
2019-05-18T04:46:50.198Z,100512.34
2019-05-18T04:49:22.452Z,100508.00
2019-05-18T04:51:54.692Z,100509.27
2019-05-18T04:54:27.054Z,100505.80
2019-05-18T04:56:59.368Z,100506.84
2019-05-18T04:59:31.698Z,100509.14
2019-05-18T05:02:04.092Z,100515.33
2019-05-18T05:04:36.355Z,100511.92
2019-05-18T05:07:08.756Z,100517.20
2019-05-18T05:09:40.907Z,100515.56
2019-05-18T05:12:13.388Z,100520.48
2019-05-18T05:14:45.560Z,100508.33
2019-05-18T05:17:17.791Z,100514.55
2019-05-18T05:19:50.065Z,100515.06
2019-05-18T05:22:22.319Z,100513.81
2019-05-18T05:24:54.590Z,100513.81
2019-05-18T05:27:26.893Z,100518.69
2019-05-18T05:29:59.180Z,100520.99
2019-05-18T05:32:31.574Z,100516.72
2019-05-18T05:35:04.036Z,100516.82
2019-05-18T05:37:36.268Z,100524.76
2019-05-18T05:40:08.575Z,100520.45
2019-05-18T05:42:40.959Z,100523.13
2019-05-18T05:45:13.183Z,100520.61
2019-05-18T05:47:45.561Z,100520.69
2019-05-18T05:50:17.860Z,100521.24
2019-05-18T05:52:50.059Z,100522.58
2019-05-18T05:55:22.571Z,100519.83
2019-05-18T05:57:54.879Z,100521.84
2019-05-18T06:00:27.123Z,100518.28
2019-05-18T06:02:59.414Z,100520.94
2019-05-18T06:05:31.680Z,100527.66
2019-05-18T06:08:03.919Z,100530.77
2019-05-18T06:10:36.210Z,100531.33
2019-05-18T06:13:08.452Z,100537.09
2019-05-18T06:15:41.669Z,100535.43
2019-05-18T06:18:14.368Z,100528.40
2019-05-18T06:20:51.646Z,100537.59
2019-05-18T06:23:20.845Z,100542.37
2019-05-18T06:25:53.189Z,100535.84
2019-05-18T06:28:25.749Z,100539.83
2019-05-18T06:30:57.969Z,100533.76
2019-05-18T06:33:30.511Z,100539.05
2019-05-18T06:36:02.761Z,100541.70
2019-05-18T06:38:35.085Z,100537.40
2019-05-18T06:41:07.549Z,100538.22
2019-05-18T06:43:39.803Z,100543.40
2019-05-18T06:46:12.077Z,100545.68
2019-05-18T06:48:44.335Z,100547.98
2019-05-18T06:51:16.587Z,100545.45
2019-05-18T06:53:48.830Z,100547.73
2019-05-18T06:56:21.100Z,100555.25
2019-05-18T06:58:53.337Z,100559.25
2019-05-18T07:01:25.623Z,100555.70
2019-05-18T07:03:57.866Z,100554.42
2019-05-18T07:06:30.154Z,100546.98
2019-05-18T07:09:02.539Z,100550.46
2019-05-18T07:11:36.029Z,100551.78
2019-05-18T07:14:08.569Z,100546.96
2019-05-18T07:16:40.967Z,100551.33
2019-05-18T07:19:13.176Z,100546.50
2019-05-18T07:21:45.533Z,100548.70
2019-05-18T07:24:17.787Z,100544.34
2019-05-18T07:26:50.056Z,100549.13
2019-05-18T07:29:22.328Z,100547.38
2019-05-18T07:31:54.793Z,100542.98
2019-05-18T07:34:27.214Z,100543.41
2019-05-18T07:36:59.485Z,100542.11
2019-05-18T07:39:31.837Z,100539.92
2019-05-18T07:42:04.108Z,100534.20
2019-05-18T07:44:36.350Z,100532.03
2019-05-18T07:47:08.829Z,100535.55
2019-05-18T07:49:41.074Z,100534.69
2019-05-18T07:52:17.147Z,100541.69
2019-05-18T07:54:48.452Z,100549.14
2019-05-18T07:57:20.925Z,100552.69
2019-05-18T07:59:53.246Z,100555.75
2019-05-18T08:02:25.531Z,100560.13
2019-05-18T08:04:57.765Z,100564.06
2019-05-18T08:07:30.131Z,100560.97
2019-05-18T08:10:02.465Z,100563.59
2019-05-18T08:12:34.802Z,100565.31
2019-05-18T08:15:07.041Z,100559.54
2019-05-18T08:17:39.363Z,100548.51
2019-05-18T08:20:11.576Z,100555.05
2019-05-18T08:22:43.798Z,100555.91
2019-05-18T08:25:16.075Z,100558.87
2019-05-18T08:27:48.312Z,100562.29
2019-05-18T08:30:20.662Z,100565.79
2019-05-18T08:32:52.890Z,100564.95
2019-05-18T08:35:27.268Z,100564.05
2019-05-18T08:38:00.295Z,100563.20
2019-05-18T08:40:32.530Z,100562.36
2019-05-18T08:43:04.798Z,100561.58
2019-05-18T08:45:37.306Z,100567.27
2019-05-18T08:48:09.564Z,100565.05
2019-05-18T08:50:41.811Z,100567.11
2019-05-18T08:53:13.940Z,100568.30
2019-05-18T08:55:46.180Z,100566.98
2019-05-18T09:00:50.471Z,100564.42
2019-05-18T09:03:22.674Z,100566.95
2019-05-18T09:05:54.953Z,100565.35
2019-05-18T09:08:29.244Z,100560.13
2019-05-18T09:11:01.544Z,100561.85
2019-05-18T09:13:36.086Z,100559.92
2019-05-18T09:16:08.321Z,100563.20
2019-05-18T09:18:40.591Z,100566.09
2019-05-18T09:21:15.918Z,100569.30
2019-05-18T09:23:48.259Z,100573.45
2019-05-18T09:26:20.502Z,100579.05
2019-05-18T09:28:52.809Z,100574.16
2019-05-18T09:31:25.142Z,100573.81
2019-05-18T09:33:57.412Z,100571.82
2019-05-18T09:36:29.554Z,100572.13
2019-05-18T09:39:04.134Z,100570.16
2019-05-18T09:41:36.425Z,100572.84
2019-05-18T09:44:08.661Z,100575.33
2019-05-18T09:46:41.065Z,100572.04
2019-05-18T09:49:13.378Z,100572.59
2019-05-18T09:51:45.685Z,100577.45
2019-05-18T09:54:17.911Z,100574.48
2019-05-18T09:56:50.182Z,100575.34
2019-05-18T09:59:22.713Z,100571.83
2019-05-18T10:01:54.980Z,100574.93
2019-05-18T10:04:27.214Z,100573.46
2019-05-18T10:06:59.448Z,100567.54
2019-05-18T10:09:38.785Z,100571.55
2019-05-18T10:12:05.803Z,100567.69
2019-05-18T10:14:38.033Z,100570.19
2019-05-18T10:19:42.371Z,100574.76
2019-05-18T10:22:14.677Z,100575.13
2019-05-18T10:24:46.895Z,100571.58
2019-05-18T10:27:19.159Z,100582.47
2019-05-18T10:29:51.437Z,100572.54
2019-05-18T10:32:23.683Z,100578.64
2019-05-18T10:34:55.987Z,100568.69
2019-05-18T10:37:28.215Z,100570.56
2019-05-18T10:40:00.438Z,100570.14
2019-05-18T10:42:32.753Z,100565.53
2019-05-18T10:45:05.016Z,100565.73
2019-05-18T10:47:40.492Z,100562.01
2019-05-18T10:50:12.777Z,100560.22
2019-05-18T10:52:45.013Z,100565.83
2019-05-18T10:55:17.255Z,100565.17
2019-05-18T10:57:49.887Z,100558.94
2019-05-18T11:00:22.272Z,100558.37
2019-05-18T11:02:54.636Z,100555.31
2019-05-18T11:05:26.842Z,100560.22
2019-05-18T11:08:00.588Z,100558.21
2019-05-18T11:10:34.473Z,100550.13
2019-05-18T11:13:06.861Z,100548.24
2019-05-18T11:15:39.100Z,100549.57
2019-05-18T11:18:11.416Z,100547.55
2019-05-18T11:20:43.922Z,100552.67
2019-05-18T11:23:16.178Z,100549.49
2019-05-18T11:25:48.493Z,100550.89
2019-05-18T11:28:20.799Z,100552.78
2019-05-18T11:30:53.036Z,100549.17
2019-05-18T11:33:25.376Z,100550.17
2019-05-18T11:35:57.640Z,100555.14
2019-05-18T11:38:29.871Z,100561.34
2019-05-18T11:41:02.208Z,100563.13
2019-05-18T11:43:34.556Z,100561.47
2019-05-18T11:46:06.923Z,100564.72
2019-05-18T11:48:39.162Z,100562.28
2019-05-18T11:51:12.509Z,100554.27
2019-05-18T11:53:57.574Z,100562.45
2019-05-18T11:56:18.746Z,100570.38
2019-05-18T11:58:51.611Z,100569.56
2019-05-18T12:01:24.665Z,100571.97
2019-05-18T12:03:57.530Z,100569.34
2019-05-18T12:06:30.362Z,100572.69
2019-05-18T12:09:03.321Z,100572.08
2019-05-18T12:11:36.285Z,100572.78
2019-05-18T12:14:09.167Z,100566.02
2019-05-18T12:16:41.974Z,100566.97
2019-05-18T12:19:15.344Z,100555.37
2019-05-18T12:21:47.587Z,100558.56
2019-05-18T12:24:19.802Z,100561.84
2019-05-18T12:26:52.129Z,100552.17
2019-05-18T12:29:24.344Z,100546.28
2019-05-18T12:31:56.693Z,100543.92
2019-05-18T12:34:29.054Z,100555.78
2019-05-18T12:37:01.534Z,100549.94
2019-05-18T12:39:33.798Z,100552.93
2019-05-18T12:42:07.624Z,100563.38
2019-05-18T12:44:40.373Z,100558.22
2019-05-18T12:47:14.397Z,100561.02
2019-05-18T12:49:47.652Z,100575.70
2019-05-18T12:52:21.558Z,100575.48
2019-05-18T12:54:54.396Z,100565.75
2019-05-18T12:57:27.224Z,100570.21
2019-05-18T13:00:00.043Z,100576.48
2019-05-18T13:02:33.987Z,100560.28
2019-05-18T13:05:06.985Z,100564.98
2019-05-18T13:07:39.922Z,100559.73
2019-05-18T13:10:12.770Z,100567.03
2019-05-18T13:12:45.677Z,100556.34
2019-05-18T13:15:18.514Z,100556.89
2019-05-18T13:17:51.391Z,100561.03
2019-05-18T13:20:23.885Z,100558.41
2019-05-18T13:22:56.307Z,100552.86
2019-05-18T13:25:28.681Z,100549.66
2019-05-18T13:28:01.148Z,100555.33
2019-05-18T13:30:33.434Z,100555.14
2019-05-18T13:33:05.688Z,100551.00
2019-05-18T13:35:37.927Z,100555.96
2019-05-18T13:38:10.164Z,100553.92
2019-05-18T13:40:42.414Z,100551.77
2019-05-18T13:43:14.733Z,100551.23
2019-05-18T13:45:49.077Z,100553.66
2019-05-18T13:48:21.477Z,100553.44
2019-05-18T13:50:53.844Z,100551.41
2019-05-18T13:53:27.167Z,100556.50
2019-05-18T13:55:59.466Z,100556.38
2019-05-18T13:58:31.776Z,100556.20
2019-05-18T14:01:03.988Z,100551.63
2019-05-18T14:03:36.283Z,100554.70
2019-05-18T14:06:08.503Z,100548.79
2019-05-18T14:08:40.862Z,100557.14
2019-05-18T14:11:13.099Z,100546.81
2019-05-18T14:13:45.386Z,100540.12
2019-05-18T14:16:17.576Z,100541.45
2019-05-18T14:18:49.789Z,100533.39
2019-05-18T14:21:22.070Z,100534.45
2019-05-18T14:23:54.583Z,100539.08
2019-05-18T14:26:26.805Z,100547.80
2019-05-18T14:28:59.091Z,100538.70
2019-05-18T14:31:31.331Z,100538.70
2019-05-18T14:34:03.546Z,100541.39
2019-05-18T14:36:35.814Z,100548.35
2019-05-18T14:39:08.061Z,100548.35
2019-05-18T14:41:42.442Z,100545.77
2019-05-18T14:44:14.299Z,100541.73
2019-05-18T14:46:48.810Z,100543.86
2019-05-18T14:49:23.387Z,100545.69
2019-05-18T14:51:55.632Z,100545.69
2019-05-18T14:54:28.956Z,100540.22
2019-05-18T14:57:01.199Z,100544.98
2019-05-18T14:59:33.535Z,100545.72
2019-05-18T15:02:05.835Z,100550.10
2019-05-18T15:04:38.074Z,100547.97
2019-05-18T15:07:10.374Z,100547.97
2019-05-18T15:09:42.635Z,100546.73
2019-05-18T15:12:15.330Z,100548.66
2019-05-18T15:14:47.520Z,100548.06
2019-05-18T15:17:23.014Z,100548.38
2019-05-18T15:19:55.385Z,100546.34
2019-05-18T15:22:28.786Z,100546.79
2019-05-18T15:25:01.085Z,100544.80
2019-05-18T15:27:33.408Z,100545.73
2019-05-18T15:30:05.637Z,100544.09
2019-05-18T15:32:37.957Z,100544.90
2019-05-18T15:35:10.157Z,100549.00
2019-05-18T15:37:44.649Z,100554.80
2019-05-18T15:40:16.938Z,100552.09
2019-05-18T15:42:49.197Z,100550.62
2019-05-18T15:45:24.541Z,100554.13
2019-05-18T15:47:55.405Z,100553.91
2019-05-18T15:50:27.656Z,100554.06
2019-05-18T15:53:00.205Z,100554.56
2019-05-18T15:55:32.445Z,100552.81
2019-05-18T15:58:04.889Z,100557.14
2019-05-18T16:00:37.110Z,100557.14
2019-05-18T16:03:09.411Z,100564.98
2019-05-18T16:05:45.504Z,100564.06
2019-05-18T16:08:17.794Z,100564.06
2019-05-18T16:10:50.070Z,100573.89
2019-05-18T16:13:23.288Z,100569.48
2019-05-18T16:15:55.589Z,100564.80
2019-05-18T16:18:27.804Z,100563.57
2019-05-18T16:21:00.053Z,100563.50
2019-05-18T16:23:32.416Z,100562.54
2019-05-18T16:26:04.630Z,100565.28
2019-05-18T16:28:37.180Z,100565.98
2019-05-18T16:31:09.440Z,100571.89
2019-05-18T16:33:41.712Z,100576.86
2019-05-18T16:36:13.965Z,100575.35
2019-05-18T16:38:46.498Z,100565.03
2019-05-18T16:41:18.802Z,100569.96
2019-05-18T16:43:51.443Z,100578.85
2019-05-18T16:46:23.659Z,100583.77
2019-05-18T16:48:55.933Z,100588.11
2019-05-18T16:51:28.129Z,100583.11
2019-05-18T16:54:00.402Z,100578.11
2019-05-18T16:56:35.163Z,100582.53
2019-05-18T16:59:06.710Z,100580.83
2019-05-18T17:01:39.152Z,100588.16
2019-05-18T17:04:11.731Z,100586.45
2019-05-18T17:06:44.571Z,100597.02
2019-05-18T17:09:16.861Z,100590.63
2019-05-18T17:11:49.269Z,100591.50
2019-05-18T17:14:21.603Z,100596.73
2019-05-18T17:16:53.873Z,100599.47
2019-05-18T17:19:26.120Z,100597.55
2019-05-18T17:21:58.390Z,100596.80
2019-05-18T17:24:30.632Z,100600.09
2019-05-18T17:27:02.851Z,100598.85
2019-05-18T17:29:35.264Z,100605.15
2019-05-18T17:32:07.556Z,100602.16
2019-05-18T17:34:39.823Z,100605.00
2019-05-18T17:37:12.538Z,100598.06
2019-05-18T17:39:44.816Z,100601.44
2019-05-18T17:42:17.118Z,100617.94
2019-05-18T17:44:49.409Z,100609.64
2019-05-18T17:47:21.683Z,100619.61
2019-05-18T17:49:54.004Z,100612.20
2019-05-18T17:52:27.378Z,100623.73
2019-05-18T17:54:59.783Z,100624.94
2019-05-18T17:57:32.026Z,100622.73
2019-05-18T18:00:04.254Z,100621.76
2019-05-18T18:02:37.175Z,100623.03
2019-05-18T18:05:09.385Z,100622.64
2019-05-18T18:07:42.721Z,100631.33
2019-05-18T18:10:14.934Z,100635.06
2019-05-18T18:12:47.369Z,100635.70
2019-05-18T18:15:19.759Z,100641.02
2019-05-18T18:17:52.305Z,100648.14
2019-05-18T18:20:24.509Z,100652.17
2019-05-18T18:22:56.751Z,100646.52
2019-05-18T18:25:29.029Z,100646.95
2019-05-18T18:28:01.278Z,100650.06
2019-05-18T18:30:33.572Z,100650.66
2019-05-18T18:33:05.889Z,100654.73
2019-05-18T18:35:39.721Z,100654.75
2019-05-18T18:38:12.160Z,100660.09
2019-05-18T18:40:44.509Z,100657.48
2019-05-18T18:43:17.165Z,100660.22
2019-05-18T18:45:49.688Z,100665.54
2019-05-18T18:48:22.508Z,100664.70
2019-05-18T18:50:55.288Z,100663.84
2019-05-18T18:53:27.709Z,100679.31
2019-05-18T18:55:59.956Z,100684.18
2019-05-18T18:58:32.467Z,100687.70
2019-05-18T19:01:04.699Z,100682.03
2019-05-18T19:03:36.975Z,100682.49
2019-05-18T19:06:09.570Z,100685.58
2019-05-18T19:08:41.867Z,100686.41
2019-05-18T19:11:14.235Z,100694.35
2019-05-18T19:13:46.485Z,100696.12
2019-05-18T19:16:18.754Z,100695.23
2019-05-18T19:18:51.232Z,100693.94
2019-05-18T19:21:23.495Z,100700.09
2019-05-18T19:23:55.773Z,100702.73
2019-05-18T19:26:28.023Z,100698.77
2019-05-18T19:29:00.279Z,100699.21
2019-05-18T19:31:32.562Z,100701.44
2019-05-18T19:34:04.863Z,100702.30
2019-05-18T19:36:38.390Z,100701.45
2019-05-18T19:39:10.747Z,100700.98
2019-05-18T19:41:43.255Z,100703.62
2019-05-18T19:44:17.561Z,100705.39
2019-05-18T19:46:50.969Z,100707.61
2019-05-18T19:49:23.807Z,100699.68
2019-05-18T19:51:56.264Z,100701.02
2019-05-18T19:54:28.491Z,100704.97
2019-05-18T19:57:00.820Z,100704.52
2019-05-18T19:59:33.113Z,100704.08
2019-05-18T20:02:05.331Z,100709.36
2019-05-18T20:04:37.547Z,100709.77
2019-05-18T20:07:09.883Z,100706.27
2019-05-18T20:09:42.568Z,100708.00
2019-05-18T20:12:14.886Z,100706.23
2019-05-18T20:14:47.118Z,100711.53
2019-05-18T20:17:19.378Z,100715.03
2019-05-18T20:19:51.628Z,100707.57
2019-05-18T20:22:23.893Z,100708.02
2019-05-18T20:24:56.423Z,100713.23
2019-05-18T20:27:28.681Z,100708.84
2019-05-18T20:30:00.965Z,100711.03
2019-05-18T20:32:33.355Z,100704.88
2019-05-18T20:35:05.595Z,100713.64
2019-05-18T20:37:37.829Z,100709.69
2019-05-18T20:40:10.088Z,100711.86
2019-05-18T20:42:43.625Z,100709.20
2019-05-18T20:45:15.901Z,100715.79
2019-05-18T20:47:48.214Z,100716.20
2019-05-18T20:50:22.777Z,100714.45
2019-05-18T20:52:54.976Z,100710.94
2019-05-18T20:55:27.244Z,100713.11
2019-05-18T20:57:59.575Z,100713.58
2019-05-18T21:00:31.984Z,100713.58
2019-05-18T21:03:04.389Z,100709.16
2019-05-18T21:05:36.795Z,100710.92
2019-05-18T21:08:09.024Z,100707.38
2019-05-18T21:10:41.577Z,100699.91
2019-05-18T21:13:13.817Z,100704.24
2019-05-18T21:15:48.323Z,100705.99
2019-05-18T21:18:20.570Z,100699.82
2019-05-18T21:20:52.787Z,100697.61
2019-05-18T21:23:25.009Z,100698.03
2019-05-18T21:25:57.640Z,100702.00
2019-05-18T21:28:29.878Z,100696.31
2019-05-18T21:31:02.111Z,100699.36
2019-05-18T21:33:34.365Z,100704.22
2019-05-18T21:36:06.615Z,100706.84
2019-05-18T21:38:38.883Z,100705.51
2019-05-18T21:41:10.943Z,100707.66
2019-05-18T21:43:43.202Z,100708.54
2019-05-18T21:46:15.490Z,100707.66
2019-05-18T21:48:47.731Z,100705.45
2019-05-18T21:51:19.988Z,100701.52
2019-05-18T21:53:52.246Z,100701.50
2019-05-18T21:56:24.499Z,100701.50
2019-05-18T21:59:10.595Z,100699.75
2019-05-18T22:01:30.663Z,100696.67
2019-05-18T22:04:03.018Z,100695.31
2019-05-18T22:06:35.310Z,100700.12
2019-05-18T22:09:07.701Z,100695.78
2019-05-18T22:11:40.229Z,100697.07
2019-05-18T22:14:12.487Z,100694.89
2019-05-18T22:16:44.778Z,100700.59
2019-05-18T22:19:17.034Z,100692.66
2019-05-18T22:21:49.266Z,100699.23
2019-05-18T22:24:21.495Z,100691.73
2019-05-18T22:26:53.754Z,100693.05
2019-05-18T22:29:25.977Z,100689.08
2019-05-18T22:31:58.185Z,100686.45
2019-05-18T22:34:30.426Z,100679.44
2019-05-18T22:37:02.659Z,100687.73
2019-05-18T22:39:34.903Z,100685.51
2019-05-18T22:42:07.167Z,100683.73
2019-05-18T22:44:39.441Z,100686.34
2019-05-18T22:47:11.691Z,100684.11
2019-05-18T22:49:45.017Z,100677.98
2019-05-18T22:52:17.282Z,100678.45
2019-05-18T22:54:49.527Z,100678.45
2019-05-18T22:57:21.831Z,100678.92
2019-05-18T22:59:54.069Z,100674.98
2019-05-18T23:02:27.392Z,100670.14
2019-05-18T23:04:59.714Z,100677.16
2019-05-18T23:07:31.933Z,100667.55
2019-05-18T23:10:04.014Z,100670.58
2019-05-18T23:12:37.379Z,100668.39
2019-05-18T23:15:09.630Z,100670.09
2019-05-18T23:17:41.850Z,100666.57
2019-05-18T23:20:14.072Z,100662.64
2019-05-18T23:22:46.349Z,100657.81
2019-05-18T23:25:18.572Z,100655.16
2019-05-18T23:27:50.803Z,100655.62
2019-05-18T23:30:23.077Z,100655.17
2019-05-18T23:32:55.309Z,100654.33
2019-05-18T23:35:27.568Z,100654.36
2019-05-18T23:37:59.791Z,100657.00
2019-05-18T23:40:31.928Z,100660.06
2019-05-18T23:43:04.548Z,100657.44
2019-05-18T23:45:36.834Z,100653.91
2019-05-18T23:48:09.128Z,100654.34
2019-05-18T23:50:41.343Z,100656.95
2019-05-18T23:53:13.589Z,100662.21
2019-05-18T23:55:45.806Z,100662.19
2019-05-18T23:58:18.044Z,100653.87
